createdAt,value
2023-04-06T00:01:03.355Z,8.00
2023-04-06T00:03:30.504Z,8.00
2023-04-06T00:05:57.738Z,8.00
2023-04-06T00:08:24.804Z,8.00
2023-04-06T00:10:51.861Z,8.00
2023-04-06T00:13:19.086Z,8.00
2023-04-06T00:15:46.163Z,8.10
2023-04-06T00:18:13.418Z,8.00
2023-04-06T00:20:40.428Z,8.00
2023-04-06T00:23:07.405Z,8.00
2023-04-06T00:25:34.268Z,7.90
2023-04-06T00:28:01.163Z,7.90
2023-04-06T00:30:28.327Z,7.70
2023-04-06T00:32:55.263Z,7.70
2023-04-06T00:35:22.411Z,7.60
2023-04-06T00:37:49.403Z,7.60
2023-04-06T00:40:16.865Z,7.70
2023-04-06T00:42:44.109Z,7.70
2023-04-06T00:45:11.520Z,7.80
2023-04-06T00:47:40.357Z,7.80
2023-04-06T00:50:08.212Z,7.90
2023-04-06T00:52:36.729Z,7.90
2023-04-06T00:55:05.788Z,7.90
2023-04-06T00:57:34.562Z,7.90
2023-04-06T01:00:01.536Z,7.80
2023-04-06T01:02:28.608Z,7.70
2023-04-06T01:04:56.205Z,7.50
2023-04-06T01:07:32.147Z,7.30
2023-04-06T01:10:12.732Z,7.30
2023-04-06T01:12:40.506Z,7.30
2023-04-06T01:15:16.284Z,7.20
2023-04-06T01:17:48.500Z,7.20
2023-04-06T01:20:17.660Z,7.10
2023-04-06T01:22:44.931Z,7.10
2023-04-06T01:25:13.479Z,7.20
2023-04-06T01:28:03.140Z,7.20
2023-04-06T01:30:53.048Z,7.20
2023-04-06T01:33:46.411Z,7.40
2023-04-06T01:36:16.932Z,7.30
2023-04-06T01:38:46.712Z,7.40
2023-04-06T01:41:17.117Z,7.40
2023-04-06T01:43:55.344Z,7.40
2023-04-06T01:46:25.487Z,7.40
2023-04-06T01:48:52.704Z,7.50
2023-04-06T01:51:28.438Z,7.60
2023-04-06T01:53:59.243Z,7.60
2023-04-06T01:56:36.865Z,7.60
2023-04-06T01:59:24.882Z,7.60
2023-04-06T02:01:52.510Z,7.60
2023-04-06T02:04:19.569Z,7.60
2023-04-06T02:06:49.920Z,7.70
2023-04-06T02:09:21.728Z,7.80
2023-04-06T02:11:49.235Z,7.80
2023-04-06T02:14:16.226Z,7.80
2023-04-06T02:16:49.490Z,7.70
2023-04-06T02:19:16.439Z,7.60
2023-04-06T02:21:44.124Z,7.70
2023-04-06T02:24:11.030Z,7.70
2023-04-06T02:26:37.941Z,7.70
2023-04-06T02:29:05.646Z,7.70
2023-04-06T02:31:33.755Z,7.70
2023-04-06T02:34:02.431Z,7.70
2023-04-06T02:36:31.868Z,7.70
2023-04-06T02:38:58.837Z,7.70
2023-04-06T02:41:26.100Z,7.70
2023-04-06T02:43:53.218Z,7.70
2023-04-06T02:46:36.210Z,7.70
2023-04-06T02:49:04.107Z,7.70
2023-04-06T02:51:33.960Z,7.80
2023-04-06T02:54:13.527Z,7.80
2023-04-06T02:56:40.494Z,7.70
2023-04-06T02:59:08.197Z,7.70
2023-04-06T03:01:35.908Z,7.70
2023-04-06T03:04:05.217Z,7.70
2023-04-06T03:06:32.532Z,7.70
2023-04-06T03:09:09.010Z,7.80
2023-04-06T03:11:37.227Z,7.70
2023-04-06T03:14:04.406Z,7.80
2023-04-06T03:16:31.429Z,7.80
2023-04-06T03:19:00.122Z,7.70
2023-04-06T03:21:28.060Z,7.60
2023-04-06T03:23:55.777Z,7.60
2023-04-06T03:26:23.460Z,7.60
2023-04-06T03:28:52.773Z,7.60
2023-04-06T03:31:23.099Z,7.60
2023-04-06T03:34:00.641Z,7.60
2023-04-06T03:36:32.259Z,7.50
2023-04-06T03:39:00.434Z,7.40
2023-04-06T03:41:27.648Z,7.40
2023-04-06T03:44:01.562Z,7.40
2023-04-06T03:46:28.684Z,7.20
2023-04-06T03:48:58.507Z,7.00
2023-04-06T03:51:26.257Z,6.70
2023-04-06T03:53:53.214Z,6.50
2023-04-06T03:56:20.958Z,6.50
2023-04-06T03:58:51.580Z,6.50
2023-04-06T04:01:21.423Z,6.60
2023-04-06T04:03:50.283Z,6.70
2023-04-06T04:06:18.525Z,6.70
2023-04-06T04:08:45.781Z,6.80
2023-04-06T04:11:12.907Z,6.70
2023-04-06T04:13:40.146Z,6.70
2023-04-06T04:16:07.988Z,6.40
2023-04-06T04:18:37.614Z,6.20
2023-04-06T04:21:04.847Z,6.10
2023-04-06T04:23:32.018Z,6.00
2023-04-06T04:25:59.457Z,6.00
2023-04-06T04:28:26.361Z,6.00
2023-04-06T04:30:55.847Z,5.90
2023-04-06T04:33:24.010Z,5.90
2023-04-06T04:35:53.864Z,5.90
2023-04-06T04:38:23.205Z,5.80
2023-04-06T04:40:53.591Z,5.70
2023-04-06T04:43:22.032Z,5.60
2023-04-06T04:45:49.118Z,5.70
2023-04-06T04:48:26.507Z,5.70
2023-04-06T04:51:01.436Z,5.70
2023-04-06T04:53:38.172Z,5.70
2023-04-06T04:56:16.414Z,5.80
2023-04-06T04:58:44.861Z,5.70
2023-04-06T05:01:12.643Z,5.60
2023-04-06T05:03:41.638Z,5.60
2023-04-06T05:06:13.719Z,5.60
2023-04-06T05:08:42.822Z,5.60
2023-04-06T05:11:11.106Z,5.80
2023-04-06T05:13:43.075Z,6.00
2023-04-06T05:16:15.568Z,6.20
2023-04-06T05:18:42.858Z,6.20
2023-04-06T05:21:12.094Z,6.40
2023-04-06T05:23:53.057Z,6.30
2023-04-06T05:26:20.099Z,6.30
2023-04-06T05:28:47.173Z,6.30
2023-04-06T05:31:16.006Z,6.30
2023-04-06T05:33:49.982Z,6.30
2023-04-06T05:36:24.868Z,6.30
2023-04-06T05:38:53.952Z,6.20
2023-04-06T05:41:36.338Z,6.20
2023-04-06T05:44:03.542Z,6.20
2023-04-06T05:46:31.810Z,6.30
2023-04-06T05:49:00.704Z,6.30
2023-04-06T05:51:31.475Z,6.20
2023-04-06T05:53:59.130Z,6.20
2023-04-06T05:56:27.454Z,6.10
2023-04-06T05:58:54.745Z,6.30
2023-04-06T06:01:27.564Z,6.50
2023-04-06T06:03:54.918Z,6.60
2023-04-06T06:06:26.786Z,6.70
2023-04-06T06:09:16.389Z,6.80
2023-04-06T06:11:52.771Z,7.00
2023-04-06T06:14:23.960Z,7.00
2023-04-06T06:16:51.195Z,7.10
2023-04-06T06:19:18.205Z,7.30
2023-04-06T06:21:46.408Z,7.40
2023-04-06T06:24:13.455Z,7.50
2023-04-06T06:26:40.984Z,7.70
2023-04-06T06:29:09.315Z,7.90
2023-04-06T06:31:39.208Z,8.10
2023-04-06T06:34:06.684Z,8.20
2023-04-06T06:36:36.362Z,8.30
2023-04-06T06:39:06.790Z,8.40
2023-04-06T06:41:34.051Z,8.50
2023-04-06T06:44:03.723Z,8.70
2023-04-06T06:46:30.680Z,8.70
2023-04-06T06:49:00.123Z,8.80
2023-04-06T06:51:27.270Z,8.90
2023-04-06T06:53:54.264Z,8.90
2023-04-06T06:56:25.470Z,8.90
2023-04-06T06:58:54.174Z,9.10
2023-04-06T07:01:22.207Z,9.10
2023-04-06T07:03:49.508Z,9.30
2023-04-06T07:06:16.549Z,9.20
2023-04-06T07:08:43.857Z,9.20
2023-04-06T07:11:10.982Z,9.30
2023-04-06T07:13:38.829Z,9.40
2023-04-06T07:16:06.136Z,9.50
2023-04-06T07:18:35.993Z,9.40
2023-04-06T07:21:03.851Z,9.40
2023-04-06T07:23:31.280Z,9.40
2023-04-06T07:25:58.283Z,9.40
2023-04-06T07:28:25.984Z,9.30
2023-04-06T07:30:55.457Z,9.40
2023-04-06T07:33:23.166Z,9.40
2023-04-06T07:35:50.689Z,9.40
2023-04-06T07:38:20.288Z,9.70
2023-04-06T07:40:47.450Z,10.00
2023-04-06T07:43:14.662Z,10.10
2023-04-06T07:45:43.155Z,10.00
2023-04-06T07:48:11.096Z,10.00
2023-04-06T07:50:38.283Z,10.10
2023-04-06T07:53:06.972Z,10.20
2023-04-06T07:55:35.678Z,10.40
2023-04-06T07:58:02.680Z,10.40
2023-04-06T08:00:31.038Z,10.40
2023-04-06T08:02:58.023Z,10.40
2023-04-06T08:05:25.095Z,10.50
2023-04-06T08:07:52.141Z,10.50
2023-04-06T08:10:19.230Z,10.50
2023-04-06T08:12:46.195Z,10.60
2023-04-06T08:15:13.217Z,10.70
2023-04-06T08:17:40.263Z,10.80
2023-04-06T08:20:07.798Z,10.90
2023-04-06T08:22:34.854Z,10.80
2023-04-06T08:25:01.941Z,10.90
2023-04-06T08:27:28.951Z,11.00
2023-04-06T08:29:56.154Z,11.10
2023-04-06T08:32:23.153Z,11.30
2023-04-06T08:34:50.052Z,11.30
2023-04-06T08:37:18.173Z,11.30
2023-04-06T08:39:45.114Z,11.50
2023-04-06T08:42:20.071Z,11.60
2023-04-06T08:44:48.322Z,11.80
2023-04-06T08:47:15.414Z,11.90
2023-04-06T08:49:45.136Z,11.70
2023-04-06T08:52:12.457Z,11.80
2023-04-06T08:54:40.265Z,11.80
2023-04-06T08:57:08.865Z,11.80
2023-04-06T08:59:36.656Z,11.80
2023-04-06T09:02:08.635Z,11.90
2023-04-06T09:04:37.597Z,11.90
2023-04-06T09:07:04.686Z,12.10
2023-04-06T09:09:31.548Z,12.30
2023-04-06T09:12:06.927Z,12.60
2023-04-06T09:14:38.966Z,12.50
2023-04-06T09:17:07.102Z,12.70
2023-04-06T09:19:34.136Z,12.70
2023-04-06T09:22:10.838Z,12.60
2023-04-06T09:24:49.694Z,12.70
2023-04-06T09:27:17.211Z,12.70
2023-04-06T09:29:45.597Z,12.80
2023-04-06T09:32:14.532Z,13.00
2023-04-06T09:34:41.505Z,13.00
2023-04-06T09:37:19.346Z,12.90
2023-04-06T09:39:46.960Z,12.80
2023-04-06T09:42:27.038Z,12.90
2023-04-06T09:44:54.122Z,12.90
2023-04-06T09:47:21.892Z,12.90
2023-04-06T09:49:51.184Z,12.90
2023-04-06T09:52:20.231Z,13.10
2023-04-06T09:54:51.766Z,13.10
2023-04-06T09:58:01.589Z,13.50
2023-04-06T10:00:34.059Z,13.30
2023-04-06T10:03:10.376Z,13.50
2023-04-06T10:05:48.219Z,13.50
2023-04-06T10:08:16.570Z,13.70
2023-04-06T10:10:44.160Z,13.60
2023-04-06T10:13:12.828Z,13.70
2023-04-06T10:15:43.463Z,13.50
2023-04-06T10:18:10.669Z,13.50
2023-04-06T10:21:03.711Z,13.50
2023-04-06T10:23:39.782Z,13.80
2023-04-06T10:26:07.053Z,14.00
2023-04-06T10:28:37.043Z,14.00
2023-04-06T10:31:07.579Z,14.10
2023-04-06T10:33:35.453Z,14.10
2023-04-06T10:36:16.488Z,14.30
2023-04-06T10:38:43.781Z,14.40
2023-04-06T10:41:12.203Z,14.40
2023-04-06T10:43:41.881Z,14.60
2023-04-06T10:46:11.123Z,14.70
2023-04-06T10:48:44.206Z,14.50
2023-04-06T10:51:13.086Z,14.40
2023-04-06T10:53:49.478Z,14.60
2023-04-06T10:56:22.320Z,14.60
2023-04-06T10:58:51.316Z,14.80
2023-04-06T11:01:23.515Z,15.00
2023-04-06T11:04:00.637Z,14.90
2023-04-06T11:06:30.676Z,15.10
2023-04-06T11:08:58.573Z,15.20
2023-04-06T11:11:28.186Z,15.20
2023-04-06T11:14:00.348Z,15.30
2023-04-06T11:16:33.295Z,15.40
2023-04-06T11:19:09.655Z,15.60
2023-04-06T11:21:41.049Z,15.70
2023-04-06T11:24:11.429Z,15.90
2023-04-06T11:26:46.956Z,15.90
2023-04-06T11:29:16.955Z,16.00
2023-04-06T11:31:47.347Z,16.20
2023-04-06T11:34:19.235Z,16.20
2023-04-06T11:36:47.869Z,16.20
2023-04-06T11:39:19.404Z,16.00
2023-04-06T11:41:51.125Z,16.10
2023-04-06T11:44:30.002Z,16.20
2023-04-06T11:46:58.639Z,16.30
2023-04-06T11:49:33.377Z,16.30
2023-04-06T11:52:01.505Z,16.10
2023-04-06T11:54:36.818Z,16.20
2023-04-06T11:57:05.236Z,16.20
2023-04-06T11:59:33.894Z,16.30
2023-04-06T12:02:03.146Z,16.50
2023-04-06T12:04:30.362Z,16.70
2023-04-06T12:06:57.940Z,16.70
2023-04-06T12:09:25.860Z,16.80
2023-04-06T12:11:52.782Z,16.90
2023-04-06T12:14:20.685Z,17.00
2023-04-06T12:16:47.826Z,17.20
2023-04-06T12:19:14.904Z,17.30
2023-04-06T12:21:42.148Z,17.60
2023-04-06T12:24:09.635Z,17.40
2023-04-06T12:26:38.256Z,17.30
2023-04-06T12:29:08.440Z,17.40
2023-04-06T12:31:44.096Z,17.80
2023-04-06T12:34:11.408Z,17.80
2023-04-06T12:36:39.666Z,17.50
2023-04-06T12:39:07.187Z,17.40
2023-04-06T12:41:34.341Z,17.80
2023-04-06T12:44:01.686Z,17.90
2023-04-06T12:46:30.697Z,17.70
2023-04-06T12:49:00.001Z,17.90
2023-04-06T12:51:30.513Z,17.60
2023-04-06T12:53:57.588Z,17.90
2023-04-06T12:56:25.018Z,18.00
2023-04-06T12:58:53.380Z,18.10
2023-04-06T13:01:21.143Z,18.00
2023-04-06T13:03:48.295Z,18.10
2023-04-06T13:06:16.431Z,18.40
2023-04-06T13:08:44.131Z,18.80
2023-04-06T13:11:11.416Z,19.30
2023-04-06T13:13:38.905Z,19.00
2023-04-06T13:16:08.440Z,18.70
2023-04-06T13:18:37.817Z,18.50
2023-04-06T13:21:05.599Z,18.60
2023-04-06T13:23:32.816Z,18.50
2023-04-06T13:26:07.750Z,18.60
2023-04-06T13:28:38.158Z,18.80
2023-04-06T13:31:05.548Z,18.70
2023-04-06T13:33:32.884Z,18.80
2023-04-06T13:36:00.174Z,18.50
2023-04-06T13:38:27.306Z,18.50
2023-04-06T13:40:54.524Z,18.50
2023-04-06T13:43:21.815Z,18.60
2023-04-06T13:45:55.210Z,18.50
2023-04-06T13:48:26.502Z,18.30
2023-04-06T13:50:53.898Z,18.50
2023-04-06T13:53:21.392Z,18.50
2023-04-06T13:55:56.555Z,18.60
2023-04-06T13:58:24.498Z,18.50
2023-04-06T14:00:52.122Z,18.70
2023-04-06T14:03:23.630Z,18.70
2023-04-06T14:05:51.248Z,18.70
2023-04-06T14:08:18.200Z,18.60
2023-04-06T14:10:45.606Z,18.80
2023-04-06T14:13:12.872Z,18.70
2023-04-06T14:15:42.966Z,18.60
2023-04-06T14:18:10.396Z,18.80
2023-04-06T14:20:37.501Z,18.70
2023-04-06T14:23:05.088Z,19.00
2023-04-06T14:25:35.953Z,18.90
2023-04-06T14:28:03.548Z,19.10
2023-04-06T14:30:31.948Z,18.80
2023-04-06T14:32:59.472Z,18.80
2023-04-06T14:35:29.292Z,18.60
2023-04-06T14:37:59.130Z,18.70
2023-04-06T14:40:26.377Z,18.50
2023-04-06T14:42:53.476Z,18.40
2023-04-06T14:45:22.728Z,18.50
2023-04-06T14:47:50.180Z,18.40
2023-04-06T14:50:17.212Z,18.30
2023-04-06T14:52:44.129Z,18.40
2023-04-06T14:55:11.146Z,18.30
2023-04-06T14:57:38.192Z,18.30
2023-04-06T15:00:06.313Z,18.10
2023-04-06T15:02:35.134Z,18.20
2023-04-06T15:05:02.264Z,18.40
2023-04-06T15:07:29.231Z,18.50
2023-04-06T15:09:57.062Z,18.70
2023-04-06T15:12:24.090Z,18.90
2023-04-06T15:14:53.006Z,19.10
2023-04-06T15:17:21.572Z,19.10
2023-04-06T15:19:49.253Z,19.20
2023-04-06T15:22:16.508Z,19.60
2023-04-06T15:24:43.504Z,20.10
2023-04-06T15:27:11.034Z,20.60
2023-04-06T15:29:40.146Z,20.60
2023-04-06T15:32:07.367Z,20.70
2023-04-06T15:34:35.138Z,20.40
2023-04-06T15:37:02.623Z,20.90
2023-04-06T15:39:30.040Z,21.10
2023-04-06T15:41:57.814Z,21.10
2023-04-06T15:44:25.731Z,20.50
2023-04-06T15:46:53.700Z,20.00
2023-04-06T15:49:21.219Z,19.60
2023-04-06T15:51:52.552Z,19.40
2023-04-06T15:54:21.299Z,19.40
2023-04-06T15:56:49.247Z,19.80
2023-04-06T15:59:16.895Z,19.90
2023-04-06T16:01:44.149Z,19.40
2023-04-06T16:04:12.131Z,18.90
2023-04-06T16:06:39.230Z,18.40
2023-04-06T16:09:06.203Z,18.00
2023-04-06T16:11:33.341Z,17.80
2023-04-06T16:14:02.053Z,17.50
2023-04-06T16:16:29.273Z,17.30
2023-04-06T16:18:56.400Z,17.20
2023-04-06T16:21:23.338Z,17.10
2023-04-06T16:23:50.347Z,16.90
2023-04-06T16:26:18.391Z,16.80
2023-04-06T16:28:45.785Z,16.60
2023-04-06T16:31:22.844Z,16.40
2023-04-06T16:33:50.912Z,16.20
2023-04-06T16:36:28.385Z,16.10
2023-04-06T16:38:59.640Z,16.10
2023-04-06T16:41:27.663Z,16.10
2023-04-06T16:43:57.328Z,16.00
2023-04-06T16:46:31.527Z,16.00
2023-04-06T16:48:59.974Z,15.90
2023-04-06T16:51:27.805Z,16.00
2023-04-06T16:53:55.489Z,15.90
2023-04-06T16:56:22.517Z,15.80
2023-04-06T16:58:49.435Z,15.70
2023-04-06T17:01:20.086Z,15.60
2023-04-06T17:03:47.540Z,15.60
2023-04-06T17:06:16.120Z,15.60
2023-04-06T17:08:44.491Z,15.60
2023-04-06T17:11:15.308Z,15.60
2023-04-06T17:13:43.421Z,15.40
2023-04-06T17:16:13.213Z,15.40
2023-04-06T17:18:40.635Z,15.30
2023-04-06T17:21:11.002Z,15.20
2023-04-06T17:23:38.011Z,15.10
2023-04-06T17:26:06.469Z,15.10
2023-04-06T17:28:35.537Z,15.10
2023-04-06T17:31:02.838Z,15.10
2023-04-06T17:33:33.391Z,15.00
2023-04-06T17:36:00.692Z,14.90
2023-04-06T17:38:28.176Z,14.90
2023-04-06T17:40:55.268Z,14.80
2023-04-06T17:43:22.452Z,14.70
2023-04-06T17:48:36.613Z,14.50
2023-04-06T17:51:05.825Z,14.50
2023-04-06T17:53:35.685Z,14.40
2023-04-06T17:56:06.590Z,14.40
2023-04-06T17:58:35.477Z,14.40
2023-04-06T18:01:12.347Z,14.40
2023-04-06T18:03:39.443Z,14.30
2023-04-06T18:06:15.860Z,14.20
2023-04-06T18:08:44.538Z,14.20
2023-04-06T18:11:19.934Z,14.10
2023-04-06T18:13:50.244Z,14.00
2023-04-06T18:16:20.495Z,14.00
2023-04-06T18:18:47.925Z,14.00
2023-04-06T18:21:16.922Z,13.90
2023-04-06T18:23:46.012Z,13.90
2023-04-06T18:26:18.482Z,13.80
2023-04-06T18:28:46.642Z,13.80
2023-04-06T18:31:13.931Z,13.70
2023-04-06T18:33:45.593Z,13.70
2023-04-06T18:36:14.666Z,13.60
2023-04-06T18:38:50.395Z,13.50
2023-04-06T18:41:18.090Z,13.50
2023-04-06T18:43:45.815Z,13.40
2023-04-06T18:46:16.166Z,13.40
2023-04-06T18:48:43.636Z,13.30
2023-04-06T18:51:11.953Z,13.20
2023-04-06T18:53:54.737Z,13.20
2023-04-06T18:56:22.254Z,13.10
2023-04-06T18:58:53.625Z,13.00
2023-04-06T19:01:23.025Z,13.00
2023-04-06T19:03:51.865Z,12.90
2023-04-06T19:06:19.732Z,12.90
2023-04-06T19:08:47.745Z,12.90
2023-04-06T19:11:16.009Z,12.80
2023-04-06T19:13:52.388Z,12.70
2023-04-06T19:16:19.444Z,12.70
2023-04-06T19:18:46.830Z,12.60
2023-04-06T19:21:21.991Z,12.60
2023-04-06T19:23:51.676Z,12.50
2023-04-06T19:26:20.465Z,12.40
2023-04-06T19:28:49.335Z,12.50
2023-04-06T19:31:19.742Z,12.50
2023-04-06T19:33:48.749Z,12.40
2023-04-06T19:36:22.141Z,12.40
2023-04-06T19:38:49.330Z,12.40
2023-04-06T19:41:19.031Z,12.30
2023-04-06T19:43:46.250Z,12.30
2023-04-06T19:46:15.529Z,12.30
2023-04-06T19:48:44.518Z,12.30
2023-04-06T19:51:11.654Z,12.20
2023-04-06T19:53:38.599Z,12.10
2023-04-06T19:56:08.317Z,12.20
2023-04-06T19:58:36.147Z,12.10
2023-04-06T20:01:03.375Z,12.00
2023-04-06T20:03:31.060Z,12.00
2023-04-06T20:05:58.385Z,12.00
2023-04-06T20:08:29.845Z,12.00
2023-04-06T20:11:04.927Z,12.00
2023-04-06T20:13:32.063Z,12.00
2023-04-06T20:15:59.259Z,12.00
2023-04-06T20:18:26.777Z,12.00
2023-04-06T20:20:54.660Z,11.90
2023-04-06T20:23:22.552Z,11.90
2023-04-06T20:25:49.804Z,11.90
2023-04-06T20:28:16.840Z,11.80
2023-04-06T20:30:46.512Z,11.70
2023-04-06T20:33:13.686Z,11.70
2023-04-06T20:35:41.463Z,11.60
2023-04-06T20:38:08.426Z,11.70
2023-04-06T20:40:35.618Z,11.70
2023-04-06T20:43:05.089Z,11.70
2023-04-06T20:45:38.370Z,11.60
2023-04-06T20:48:05.861Z,11.60
2023-04-06T20:50:33.073Z,11.70
2023-04-06T20:53:00.013Z,11.60
2023-04-06T20:55:27.861Z,11.60
2023-04-06T20:57:54.885Z,11.60
2023-04-06T21:00:22.048Z,11.60
2023-04-06T21:02:49.337Z,11.60
2023-04-06T21:05:16.795Z,11.60
2023-04-06T21:07:45.182Z,11.60
2023-04-06T21:10:12.170Z,11.60
2023-04-06T21:12:39.124Z,11.50
2023-04-06T21:15:07.096Z,11.50
2023-04-06T21:17:34.113Z,11.50
2023-04-06T21:20:01.155Z,11.40
2023-04-06T21:22:28.490Z,11.40
2023-04-06T21:24:55.566Z,11.40
2023-04-06T21:27:22.531Z,11.40
2023-04-06T21:29:49.550Z,11.40
2023-04-06T21:32:16.603Z,11.30
2023-04-06T21:34:46.801Z,11.20
2023-04-06T21:37:15.227Z,11.10
2023-04-06T21:39:43.244Z,11.10
2023-04-06T21:42:10.243Z,11.20
2023-04-06T21:44:37.241Z,11.20
2023-04-06T21:47:11.486Z,11.20
2023-04-06T21:49:38.562Z,11.10
2023-04-06T21:52:05.531Z,11.20
2023-04-06T21:54:34.003Z,11.20
2023-04-06T21:57:04.165Z,11.20
2023-04-06T21:59:31.257Z,11.10
2023-04-06T22:01:58.309Z,11.10
2023-04-06T22:04:25.637Z,11.10
2023-04-06T22:06:52.981Z,11.10
2023-04-06T22:09:20.028Z,11.10
2023-04-06T22:11:46.975Z,11.00
2023-04-06T22:14:14.601Z,11.00
2023-04-06T22:16:41.559Z,10.90
2023-04-06T22:19:10.574Z,11.00
2023-04-06T22:21:38.034Z,11.00
2023-04-06T22:24:05.820Z,11.00
2023-04-06T22:26:32.868Z,11.00
2023-04-06T22:28:59.778Z,11.00
2023-04-06T22:31:27.313Z,10.90
2023-04-06T22:33:54.323Z,10.90
2023-04-06T22:36:21.338Z,10.90
2023-04-06T22:38:50.609Z,10.80
2023-04-06T22:41:17.697Z,10.70
2023-04-06T22:43:44.637Z,10.70
2023-04-06T22:46:14.739Z,10.60
2023-04-06T22:48:41.807Z,10.60
2023-04-06T22:51:08.769Z,10.60
2023-04-06T22:53:35.789Z,10.60
2023-04-06T22:56:02.928Z,10.60
2023-04-06T22:58:29.848Z,10.70
2023-04-06T23:00:56.852Z,10.70
2023-04-06T23:03:23.793Z,10.70
2023-04-06T23:05:51.140Z,10.80
2023-04-06T23:08:18.224Z,10.80
2023-04-06T23:10:45.490Z,10.80
2023-04-06T23:13:12.744Z,10.80
2023-04-06T23:15:39.778Z,10.70
2023-04-06T23:18:06.906Z,10.60
2023-04-06T23:20:34.041Z,10.60
2023-04-06T23:23:01.232Z,10.60
2023-04-06T23:25:28.100Z,10.60
2023-04-06T23:27:54.992Z,10.40
2023-04-06T23:30:21.923Z,10.40
2023-04-06T23:32:48.950Z,10.40
2023-04-06T23:35:16.065Z,10.50
2023-04-06T23:37:42.903Z,10.50
2023-04-06T23:40:10.143Z,10.50
2023-04-06T23:42:37.109Z,10.50
2023-04-06T23:45:05.292Z,10.40
2023-04-06T23:47:32.183Z,10.40
2023-04-06T23:49:59.152Z,10.40
2023-04-06T23:52:26.069Z,10.30
2023-04-06T23:54:53.773Z,10.20
2023-04-06T23:57:20.650Z,10.20
2023-04-06T23:59:47.548Z,10.10
